sensor_id;sensor_type;location;lat;lon;timestamp;pressure;altitude;pressure_sealevel;temperature;humidity
77227;BME280;66234;47.642;19.144;2023-05-17T00:01:17;99534.84;;;14.09;100.00
77227;BME280;66234;47.642;19.144;2023-05-17T00:04:20;99539.56;;;14.02;100.00
77227;BME280;66234;47.642;19.144;2023-05-17T00:07:22;99541.72;;;14.00;100.00
77227;BME280;66234;47.642;19.144;2023-05-17T00:10:25;99541.72;;;14.00;100.00
77227;BME280;66234;47.642;19.144;2023-05-17T00:13:27;99541.72;;;14.00;100.00
77227;BME280;66234;47.642;19.144;2023-05-17T00:16:30;99542.22;;;13.97;100.00
77227;BME280;66234;47.642;19.144;2023-05-17T00:19:32;99540.56;;;13.96;100.00
77227;BME280;66234;47.642;19.144;2023-05-17T00:22:35;99536.50;;;13.93;100.00
77227;BME280;66234;47.642;19.144;2023-05-17T00:25:38;99538.94;;;13.95;100.00
77227;BME280;66234;47.642;19.144;2023-05-17T00:28:41;99537.63;;;13.97;100.00
77227;BME280;66234;47.642;19.144;2023-05-17T00:31:43;99533.56;;;13.95;100.00
77227;BME280;66234;47.642;19.144;2023-05-17T00:34:46;99531.22;;;13.98;100.00
77227;BME280;66234;47.642;19.144;2023-05-17T00:37:49;99525.84;;;13.98;100.00
77227;BME280;66234;47.642;19.144;2023-05-17T00:40:52;99525.50;;;13.95;100.00
77227;BME280;66234;47.642;19.144;2023-05-17T00:43:55;99530.06;;;13.94;100.00
77227;BME280;66234;47.642;19.144;2023-05-17T00:46:58;99530.22;;;13.88;100.00
77227;BME280;66234;47.642;19.144;2023-05-17T00:50:01;99527.06;;;13.74;100.00
77227;BME280;66234;47.642;19.144;2023-05-17T00:53:04;99522.41;;;13.70;100.00
77227;BME280;66234;47.642;19.144;2023-05-17T00:56:07;99531.84;;;13.72;100.00
77227;BME280;66234;47.642;19.144;2023-05-17T00:59:12;99532.59;;;13.68;100.00
77227;BME280;66234;47.642;19.144;2023-05-17T01:02:15;99536.50;;;13.60;100.00
77227;BME280;66234;47.642;19.144;2023-05-17T01:05:19;99537.72;;;13.53;100.00
77227;BME280;66234;47.642;19.144;2023-05-17T01:08:21;99528.84;;;13.52;100.00
77227;BME280;66234;47.642;19.144;2023-05-17T01:25:15;99546.06;;;13.23;100.00
77227;BME280;66234;47.642;19.144;2023-05-17T01:28:25;99543.13;;;13.24;100.00
77227;BME280;66234;47.642;19.144;2023-05-17T01:31:28;99549.25;;;13.37;100.00
77227;BME280;66234;47.642;19.144;2023-05-17T01:34:33;99538.09;;;13.45;100.00
77227;BME280;66234;47.642;19.144;2023-05-17T01:37:38;99537.13;;;13.51;100.00
77227;BME280;66234;47.642;19.144;2023-05-17T01:40:53;99531.75;;;13.51;100.00
77227;BME280;66234;47.642;19.144;2023-05-17T01:47:38;99524.03;;;13.54;100.00
77227;BME280;66234;47.642;19.144;2023-05-17T01:50:47;99528.09;;;13.57;100.00
77227;BME280;66234;47.642;19.144;2023-05-17T01:53:56;99528.03;;;13.52;100.00
77227;BME280;66234;47.642;19.144;2023-05-17T01:57:03;99524.63;;;13.56;100.00
77227;BME280;66234;47.642;19.144;2023-05-17T02:00:08;99518.75;;;13.59;100.00
77227;BME280;66234;47.642;19.144;2023-05-17T02:03:19;99525.97;;;13.75;100.00
77227;BME280;66234;47.642;19.144;2023-05-17T02:06:26;99526.50;;;13.89;100.00
77227;BME280;66234;47.642;19.144;2023-05-17T02:09:29;99528.44;;;13.93;100.00
77227;BME280;66234;47.642;19.144;2023-05-17T02:12:32;99522.97;;;13.88;100.00
77227;BME280;66234;47.642;19.144;2023-05-17T02:15:35;99530.22;;;13.88;100.00
77227;BME280;66234;47.642;19.144;2023-05-17T02:18:38;99533.00;;;13.93;100.00
77227;BME280;66234;47.642;19.144;2023-05-17T02:21:41;99525.09;;;14.03;100.00
77227;BME280;66234;47.642;19.144;2023-05-17T02:24:44;99527.16;;;14.17;100.00
77227;BME280;66234;47.642;19.144;2023-05-17T02:27:48;99532.47;;;14.29;100.00
77227;BME280;66234;47.642;19.144;2023-05-17T02:30:50;99526.16;;;14.23;100.00
77227;BME280;66234;47.642;19.144;2023-05-17T02:33:54;99528.38;;;14.26;100.00
77227;BME280;66234;47.642;19.144;2023-05-17T02:36:57;99533.06;;;14.31;100.00
77227;BME280;66234;47.642;19.144;2023-05-17T02:40:00;99545.69;;;14.30;100.00
77227;BME280;66234;47.642;19.144;2023-05-17T02:43:02;99554.63;;;14.36;100.00
77227;BME280;66234;47.642;19.144;2023-05-17T02:46:09;99561.56;;;14.32;100.00
77227;BME280;66234;47.642;19.144;2023-05-17T02:49:12;99561.31;;;14.33;100.00
77227;BME280;66234;47.642;19.144;2023-05-17T02:52:14;99564.50;;;14.30;100.00
77227;BME280;66234;47.642;19.144;2023-05-17T02:55:18;99560.75;;;14.31;100.00
77227;BME280;66234;47.642;19.144;2023-05-17T02:58:20;99569.13;;;14.35;100.00
77227;BME280;66234;47.642;19.144;2023-05-17T03:01:23;99567.16;;;14.47;100.00
77227;BME280;66234;47.642;19.144;2023-05-17T03:04:26;99560.00;;;14.36;100.00
77227;BME280;66234;47.642;19.144;2023-05-17T03:07:30;99564.59;;;14.35;100.00
77227;BME280;66234;47.642;19.144;2023-05-17T03:10:32;99572.94;;;14.39;100.00
77227;BME280;66234;47.642;19.144;2023-05-17T03:13:35;99579.53;;;14.48;100.00
77227;BME280;66234;47.642;19.144;2023-05-17T03:16:37;99566.97;;;14.53;100.00
77227;BME280;66234;47.642;19.144;2023-05-17T03:19:40;99574.78;;;14.55;100.00
77227;BME280;66234;47.642;19.144;2023-05-17T03:22:43;99574.38;;;14.46;100.00
77227;BME280;66234;47.642;19.144;2023-05-17T03:25:45;99574.34;;;14.41;100.00
77227;BME280;66234;47.642;19.144;2023-05-17T03:28:48;99580.50;;;14.42;100.00
77227;BME280;66234;47.642;19.144;2023-05-17T03:31:52;99585.41;;;14.45;100.00
77227;BME280;66234;47.642;19.144;2023-05-17T03:34:55;99582.41;;;14.41;100.00
77227;BME280;66234;47.642;19.144;2023-05-17T03:37:58;99575.63;;;14.39;100.00
77227;BME280;66234;47.642;19.144;2023-05-17T03:41:02;99575.34;;;14.35;100.00
77227;BME280;66234;47.642;19.144;2023-05-17T03:44:06;99579.00;;;14.29;100.00
77227;BME280;66234;47.642;19.144;2023-05-17T03:47:08;99581.94;;;14.28;100.00
77227;BME280;66234;47.642;19.144;2023-05-17T03:50:12;99594.34;;;14.29;100.00
77227;BME280;66234;47.642;19.144;2023-05-17T03:53:14;99601.41;;;14.35;100.00
77227;BME280;66234;47.642;19.144;2023-05-17T03:56:17;99600.84;;;14.33;100.00
77227;BME280;66234;47.642;19.144;2023-05-17T03:59:20;99611.50;;;14.44;100.00
77227;BME280;66234;47.642;19.144;2023-05-17T04:02:23;99617.84;;;14.55;100.00
77227;BME280;66234;47.642;19.144;2023-05-17T04:05:25;99627.53;;;14.56;100.00
77227;BME280;66234;47.642;19.144;2023-05-17T04:08:30;99622.22;;;14.61;100.00
77227;BME280;66234;47.642;19.144;2023-05-17T04:11:33;99622.63;;;14.69;100.00
77227;BME280;66234;47.642;19.144;2023-05-17T04:14:37;99631.56;;;14.75;100.00
77227;BME280;66234;47.642;19.144;2023-05-17T04:17:40;99628.94;;;14.80;100.00
77227;BME280;66234;47.642;19.144;2023-05-17T04:20:43;99630.56;;;14.81;100.00
77227;BME280;66234;47.642;19.144;2023-05-17T04:23:45;99628.69;;;14.81;100.00
77227;BME280;66234;47.642;19.144;2023-05-17T04:26:50;99631.69;;;14.85;100.00
77227;BME280;66234;47.642;19.144;2023-05-17T04:29:56;99635.84;;;14.93;100.00
77227;BME280;66234;47.642;19.144;2023-05-17T04:32:59;99634.09;;;15.03;100.00
77227;BME280;66234;47.642;19.144;2023-05-17T04:36:02;99636.13;;;15.18;99.23
77227;BME280;66234;47.642;19.144;2023-05-17T04:39:06;99634.06;;;15.25;98.70
77227;BME280;66234;47.642;19.144;2023-05-17T04:42:09;99641.34;;;15.24;98.71
77227;BME280;66234;47.642;19.144;2023-05-17T04:45:16;99645.09;;;15.23;99.06
77227;BME280;66234;47.642;19.144;2023-05-17T04:48:19;99655.63;;;15.25;99.32
77227;BME280;66234;47.642;19.144;2023-05-17T04:51:22;99673.16;;;15.27;99.62
77227;BME280;66234;47.642;19.144;2023-05-17T04:54:25;99674.53;;;15.30;99.80
77227;BME280;66234;47.642;19.144;2023-05-17T04:57:28;99674.75;;;15.45;99.32
77227;BME280;66234;47.642;19.144;2023-05-17T05:00:34;99692.97;;;15.59;98.14
77227;BME280;66234;47.642;19.144;2023-05-17T05:03:39;99683.25;;;15.58;98.13
77227;BME280;66234;47.642;19.144;2023-05-17T05:06:43;99688.03;;;15.51;98.57
77227;BME280;66234;47.642;19.144;2023-05-17T05:09:46;99685.19;;;15.63;98.05
77227;BME280;66234;47.642;19.144;2023-05-17T05:12:52;99687.44;;;15.71;97.20
77227;BME280;66234;47.642;19.144;2023-05-17T05:15:54;99693.13;;;15.74;95.60
77227;BME280;66234;47.642;19.144;2023-05-17T05:18:58;99693.44;;;15.78;96.22
77227;BME280;66234;47.642;19.144;2023-05-17T05:22:01;99694.91;;;15.90;96.06
77227;BME280;66234;47.642;19.144;2023-05-17T05:25:07;99704.19;;;15.99;95.14
77227;BME280;66234;47.642;19.144;2023-05-17T05:28:10;99700.97;;;16.02;94.64
77227;BME280;66234;47.642;19.144;2023-05-17T05:31:15;99708.09;;;16.18;94.56
77227;BME280;66234;47.642;19.144;2023-05-17T05:34:23;99712.28;;;16.31;93.46
77227;BME280;66234;47.642;19.144;2023-05-17T05:37:26;99703.97;;;16.37;93.05
77227;BME280;66234;47.642;19.144;2023-05-17T05:40:30;99718.38;;;16.48;93.22
77227;BME280;66234;47.642;19.144;2023-05-17T05:43:34;99707.22;;;16.39;93.39
77227;BME280;66234;47.642;19.144;2023-05-17T05:46:38;99710.66;;;16.62;92.78
77227;BME280;66234;47.642;19.144;2023-05-17T05:49:41;99717.78;;;16.78;91.43
77227;BME280;66234;47.642;19.144;2023-05-17T05:52:45;99723.28;;;16.88;90.41
77227;BME280;66234;47.642;19.144;2023-05-17T05:55:48;99720.81;;;16.86;90.91
77227;BME280;66234;47.642;19.144;2023-05-17T05:58:51;99720.88;;;16.96;90.15
77227;BME280;66234;47.642;19.144;2023-05-17T06:01:55;99722.75;;;16.91;90.13
77227;BME280;66234;47.642;19.144;2023-05-17T06:04:57;99733.88;;;16.99;90.70
77227;BME280;66234;47.642;19.144;2023-05-17T06:08:00;99734.94;;;16.98;91.38
77227;BME280;66234;47.642;19.144;2023-05-17T06:11:03;99735.56;;;17.10;90.79
77227;BME280;66234;47.642;19.144;2023-05-17T06:14:05;99736.91;;;17.08;90.24
77227;BME280;66234;47.642;19.144;2023-05-17T06:17:08;99732.56;;;17.07;90.24
77227;BME280;66234;47.642;19.144;2023-05-17T06:20:12;99741.25;;;17.14;89.32
77227;BME280;66234;47.642;19.144;2023-05-17T06:23:14;99742.59;;;17.16;88.91
77227;BME280;66234;47.642;19.144;2023-05-17T06:26:18;99736.72;;;17.24;88.92
77227;BME280;66234;47.642;19.144;2023-05-17T06:29:20;99746.16;;;17.27;88.88
77227;BME280;66234;47.642;19.144;2023-05-17T06:32:23;99747.28;;;17.31;87.99
77227;BME280;66234;47.642;19.144;2023-05-17T06:35:26;99752.13;;;17.29;88.25
77227;BME280;66234;47.642;19.144;2023-05-17T06:38:29;99745.66;;;17.25;88.46
77227;BME280;66234;47.642;19.144;2023-05-17T06:41:31;99738.81;;;17.12;89.06
77227;BME280;66234;47.642;19.144;2023-05-17T06:44:34;99746.06;;;17.07;89.14
77227;BME280;66234;47.642;19.144;2023-05-17T06:47:39;99746.94;;;17.17;88.11
77227;BME280;66234;47.642;19.144;2023-05-17T06:50:42;99754.25;;;17.22;88.32
77227;BME280;66234;47.642;19.144;2023-05-17T06:53:46;99751.03;;;17.25;88.24
77227;BME280;66234;47.642;19.144;2023-05-17T06:56:49;99753.47;;;17.26;89.03
77227;BME280;66234;47.642;19.144;2023-05-17T06:59:54;99761.56;;;17.21;88.71
77227;BME280;66234;47.642;19.144;2023-05-17T07:02:57;99762.94;;;17.29;88.63
77227;BME280;66234;47.642;19.144;2023-05-17T07:06:00;99759.16;;;17.30;87.77
77227;BME280;66234;47.642;19.144;2023-05-17T07:09:03;99762.94;;;17.29;88.67
77227;BME280;66234;47.642;19.144;2023-05-17T07:12:06;99766.56;;;17.44;88.14
77227;BME280;66234;47.642;19.144;2023-05-17T07:15:09;99768.13;;;17.35;88.91
77227;BME280;66234;47.642;19.144;2023-05-17T07:18:12;99779.56;;;17.47;87.68
77227;BME280;66234;47.642;19.144;2023-05-17T07:21:15;99782.72;;;17.39;88.64
77227;BME280;66234;47.642;19.144;2023-05-17T07:24:18;99781.06;;;17.33;89.50
77227;BME280;66234;47.642;19.144;2023-05-17T07:27:20;99780.81;;;17.35;87.94
77227;BME280;66234;47.642;19.144;2023-05-17T07:30:23;99781.25;;;17.22;88.18
77227;BME280;66234;47.642;19.144;2023-05-17T07:33:26;99788.84;;;17.20;88.56
77227;BME280;66234;47.642;19.144;2023-05-17T07:36:28;99792.34;;;17.20;89.00
77227;BME280;66234;47.642;19.144;2023-05-17T07:39:32;99790.78;;;17.29;88.72
77227;BME280;66234;47.642;19.144;2023-05-17T07:42:35;99793.22;;;17.31;88.91
77227;BME280;66234;47.642;19.144;2023-05-17T07:45:37;99790.25;;;17.32;88.61
77227;BME280;66234;47.642;19.144;2023-05-17T07:48:40;99789.28;;;17.48;87.36
77227;BME280;66234;47.642;19.144;2023-05-17T07:51:43;99778.47;;;17.48;87.48
77227;BME280;66234;47.642;19.144;2023-05-17T07:54:45;99786.47;;;17.33;87.60
77227;BME280;66234;47.642;19.144;2023-05-17T07:57:48;99791.47;;;17.46;87.92
77227;BME280;66234;47.642;19.144;2023-05-17T08:00:51;99787.47;;;17.64;87.97
77227;BME280;66234;47.642;19.144;2023-05-17T08:03:53;99787.81;;;17.82;86.34
77227;BME280;66234;47.642;19.144;2023-05-17T08:06:56;99784.59;;;17.90;86.91
77227;BME280;66234;47.642;19.144;2023-05-17T08:09:59;99788.94;;;17.96;86.53
77227;BME280;66234;47.642;19.144;2023-05-17T08:13:03;99792.19;;;17.98;87.33
77227;BME280;66234;47.642;19.144;2023-05-17T08:16:06;99787.34;;;18.11;86.52
77227;BME280;66234;47.642;19.144;2023-05-17T08:19:15;99790.34;;;18.14;86.54
77227;BME280;66234;47.642;19.144;2023-05-17T08:22:18;99807.66;;;18.18;85.27
77227;BME280;66234;47.642;19.144;2023-05-17T08:25:22;99816.03;;;18.01;86.30
77227;BME280;66234;47.642;19.144;2023-05-17T08:28:24;99809.47;;;17.87;87.43
77227;BME280;66234;47.642;19.144;2023-05-17T08:31:27;99807.59;;;17.88;86.68
77227;BME280;66234;47.642;19.144;2023-05-17T08:34:30;99810.56;;;17.91;86.59
77227;BME280;66234;47.642;19.144;2023-05-17T08:37:33;99812.47;;;17.91;86.85
77227;BME280;66234;47.642;19.144;2023-05-17T08:40:35;99815.13;;;17.81;88.48
77227;BME280;66234;47.642;19.144;2023-05-17T08:43:40;99821.66;;;17.85;87.62
77227;BME280;66234;47.642;19.144;2023-05-17T08:46:46;99831.88;;;17.78;88.59
77227;BME280;66234;47.642;19.144;2023-05-17T08:49:55;99817.97;;;17.49;89.43
77227;BME280;66234;47.642;19.144;2023-05-17T08:53:02;99826.91;;;17.55;89.10
77227;BME280;66234;47.642;19.144;2023-05-17T08:56:05;99822.84;;;17.52;89.42
77227;BME280;66234;47.642;19.144;2023-05-17T08:59:09;99823.94;;;17.56;90.21
77227;BME280;66234;47.642;19.144;2023-05-17T09:02:15;99825.06;;;17.65;89.77
77227;BME280;66234;47.642;19.144;2023-05-17T09:05:18;99824.47;;;17.53;91.23
77227;BME280;66234;47.642;19.144;2023-05-17T09:08:22;99816.47;;;17.78;89.20
77227;BME280;66234;47.642;19.144;2023-05-17T09:11:26;99825.16;;;17.80;88.65
77227;BME280;66234;47.642;19.144;2023-05-17T09:14:33;99824.56;;;17.73;89.04
77227;BME280;66234;47.642;19.144;2023-05-17T09:17:39;99826.06;;;17.54;90.60
77227;BME280;66234;47.642;19.144;2023-05-17T09:20:49;99826.19;;;17.74;90.04
77227;BME280;66234;47.642;19.144;2023-05-17T09:23:54;99822.66;;;17.69;90.05
77227;BME280;66234;47.642;19.144;2023-05-17T09:27:08;99824.09;;;17.91;90.04
77227;BME280;66234;47.642;19.144;2023-05-17T09:30:10;99819.56;;;18.12;88.97
77227;BME280;66234;47.642;19.144;2023-05-17T09:33:14;99821.50;;;18.37;86.69
77227;BME280;66234;47.642;19.144;2023-05-17T09:36:21;99819.88;;;18.21;87.07
77227;BME280;66234;47.642;19.144;2023-05-17T09:39:24;99820.16;;;18.29;87.00
77227;BME280;66234;47.642;19.144;2023-05-17T09:42:28;99824.75;;;18.34;86.28
77227;BME280;66234;47.642;19.144;2023-05-17T09:45:32;99819.13;;;18.50;85.94
77227;BME280;66234;47.642;19.144;2023-05-17T09:48:37;99825.09;;;18.52;83.80
77227;BME280;66234;47.642;19.144;2023-05-17T09:51:42;99828.09;;;19.01;82.79
77227;BME280;66234;47.642;19.144;2023-05-17T09:54:56;99832.69;;;19.20;84.34
77227;BME280;66234;47.642;19.144;2023-05-17T09:58:02;99824.03;;;19.08;82.84
77227;BME280;66234;47.642;19.144;2023-05-17T10:01:06;99834.78;;;19.58;80.09
77227;BME280;66234;47.642;19.144;2023-05-17T10:04:10;99835.88;;;19.63;80.10
77227;BME280;66234;47.642;19.144;2023-05-17T10:07:16;99836.22;;;19.31;80.45
77227;BME280;66234;47.642;19.144;2023-05-17T10:10:21;99836.44;;;19.54;79.82
77227;BME280;66234;47.642;19.144;2023-05-17T10:13:28;99844.56;;;19.54;79.41
77227;BME280;66234;47.642;19.144;2023-05-17T10:16:32;99838.38;;;19.49;81.18
77227;BME280;66234;47.642;19.144;2023-05-17T10:19:36;99843.00;;;18.78;82.33
77227;BME280;66234;47.642;19.144;2023-05-17T10:22:40;99848.13;;;18.80;83.56
77227;BME280;66234;47.642;19.144;2023-05-17T10:25:44;99861.94;;;19.23;82.00
77227;BME280;66234;47.642;19.144;2023-05-17T10:28:48;99854.09;;;19.42;80.06
77227;BME280;66234;47.642;19.144;2023-05-17T10:31:54;99860.63;;;19.46;79.16
77227;BME280;66234;47.642;19.144;2023-05-17T10:34:58;99863.88;;;19.38;80.28
77227;BME280;66234;47.642;19.144;2023-05-17T10:38:13;99863.53;;;19.70;79.05
77227;BME280;66234;47.642;19.144;2023-05-17T10:41:17;99859.41;;;19.77;77.56
77227;BME280;66234;47.642;19.144;2023-05-17T10:44:25;99858.00;;;20.05;76.38
77227;BME280;66234;47.642;19.144;2023-05-17T10:47:32;99858.91;;;19.70;78.31
77227;BME280;66234;47.642;19.144;2023-05-17T10:50:37;99855.00;;;20.01;76.10
77227;BME280;66234;47.642;19.144;2023-05-17T10:54:10;99857.38;;;20.13;75.81
77227;BME280;66234;47.642;19.144;2023-05-17T10:57:56;99865.50;;;20.28;75.72
77227;BME280;66234;47.642;19.144;2023-05-17T11:01:09;99875.50;;;19.48;78.12
77227;BME280;66234;47.642;19.144;2023-05-17T11:04:22;99874.41;;;18.84;78.08
77227;BME280;66234;47.642;19.144;2023-05-17T11:07:28;99874.41;;;18.74;78.73
77227;BME280;66234;47.642;19.144;2023-05-17T11:10:34;99877.91;;;18.65;78.69
77227;BME280;66234;47.642;19.144;2023-05-17T11:13:50;99870.38;;;18.87;77.71
77227;BME280;66234;47.642;19.144;2023-05-17T11:16:56;99880.13;;;19.08;78.21
77227;BME280;66234;47.642;19.144;2023-05-17T11:20:07;99885.81;;;19.56;75.03
77227;BME280;66234;47.642;19.144;2023-05-17T11:23:16;99886.25;;;19.94;73.82
77227;BME280;66234;47.642;19.144;2023-05-17T11:26:22;99887.88;;;19.90;73.00
77227;BME280;66234;47.642;19.144;2023-05-17T11:29:28;99882.94;;;20.07;73.18
77227;BME280;66234;47.642;19.144;2023-05-17T11:32:32;99883.41;;;20.34;72.09
77227;BME280;66234;47.642;19.144;2023-05-17T11:35:37;99888.38;;;20.17;74.24
77227;BME280;66234;47.642;19.144;2023-05-17T11:38:42;99885.94;;;20.15;73.22
77227;BME280;66234;47.642;19.144;2023-05-17T11:41:53;99898.16;;;20.08;73.20
77227;BME280;66234;47.642;19.144;2023-05-17T11:45:00;99897.59;;;20.01;74.20
77227;BME280;66234;47.642;19.144;2023-05-17T11:48:03;99905.81;;;19.76;74.50
77227;BME280;66234;47.642;19.144;2023-05-17T11:51:06;99902.06;;;19.41;75.45
77227;BME280;66234;47.642;19.144;2023-05-17T11:54:09;99909.38;;;19.06;76.87
77227;BME280;66234;47.642;19.144;2023-05-17T11:57:13;99917.53;;;19.16;77.01
77227;BME280;66234;47.642;19.144;2023-05-17T12:00:24;99909.91;;;19.23;76.07
77227;BME280;66234;47.642;19.144;2023-05-17T12:03:32;99907.53;;;19.36;76.15
77227;BME280;66234;47.642;19.144;2023-05-17T12:06:34;99907.22;;;19.48;74.19
77227;BME280;66234;47.642;19.144;2023-05-17T12:09:38;99908.84;;;19.69;74.16
77227;BME280;66234;47.642;19.144;2023-05-17T12:12:42;99905.16;;;20.24;72.63
77227;BME280;66234;47.642;19.144;2023-05-17T12:15:55;99911.81;;;20.95;69.47
77227;BME280;66234;47.642;19.144;2023-05-17T12:18:58;99910.41;;;21.02;68.21
77227;BME280;66234;47.642;19.144;2023-05-17T12:22:08;99920.81;;;20.95;67.87
77227;BME280;66234;47.642;19.144;2023-05-17T12:25:21;99923.44;;;21.05;67.11
77227;BME280;66234;47.642;19.144;2023-05-17T12:28:27;99920.59;;;21.54;64.68
77227;BME280;66234;47.642;19.144;2023-05-17T12:31:35;99907.59;;;22.69;61.68
77227;BME280;66234;47.642;19.144;2023-05-17T12:34:39;99916.38;;;22.19;63.58
77227;BME280;66234;47.642;19.144;2023-05-17T12:37:43;99910.53;;;21.55;64.48
77227;BME280;66234;47.642;19.144;2023-05-17T12:40:47;99912.34;;;21.02;68.01
77227;BME280;66234;47.642;19.144;2023-05-17T12:43:49;99924.31;;;21.35;66.68
77227;BME280;66234;47.642;19.144;2023-05-17T12:47:01;99916.94;;;20.53;69.38
77227;BME280;66234;47.642;19.144;2023-05-17T12:50:04;99921.47;;;20.04;70.74
77227;BME280;66234;47.642;19.144;2023-05-17T12:53:07;99919.59;;;19.99;71.13
77227;BME280;66234;47.642;19.144;2023-05-17T12:56:19;99920.88;;;20.32;70.42
77227;BME280;66234;47.642;19.144;2023-05-17T12:59:24;99922.84;;;20.01;70.85
77227;BME280;66234;47.642;19.144;2023-05-17T13:02:27;99925.66;;;19.61;72.18
77227;BME280;66234;47.642;19.144;2023-05-17T13:05:30;99931.28;;;19.90;71.68
77227;BME280;66234;47.642;19.144;2023-05-17T13:08:34;99929.13;;;19.97;71.68
77227;BME280;66234;47.642;19.144;2023-05-17T13:11:37;99925.06;;;19.84;73.14
77227;BME280;66234;47.642;19.144;2023-05-17T13:14:44;99926.69;;;19.85;72.31
77227;BME280;66234;47.642;19.144;2023-05-17T13:17:48;99935.13;;;19.79;72.02
77227;BME280;66234;47.642;19.144;2023-05-17T13:20:52;99936.22;;;19.73;73.06
77227;BME280;66234;47.642;19.144;2023-05-17T13:23:55;99921.47;;;20.09;71.37
77227;BME280;66234;47.642;19.144;2023-05-17T13:26:57;99920.56;;;20.38;70.40
77227;BME280;66234;47.642;19.144;2023-05-17T13:30:02;99930.66;;;20.28;71.03
77227;BME280;66234;47.642;19.144;2023-05-17T13:33:06;99938.94;;;19.17;72.60
77227;BME280;66234;47.642;19.144;2023-05-17T13:36:08;99934.84;;;19.05;72.63
77227;BME280;66234;47.642;19.144;2023-05-17T13:39:11;99931.06;;;19.16;71.91
77227;BME280;66234;47.642;19.144;2023-05-17T13:42:14;99930.56;;;19.34;71.63
77227;BME280;66234;47.642;19.144;2023-05-17T13:45:17;99933.50;;;19.07;72.40
77227;BME280;66234;47.642;19.144;2023-05-17T13:48:20;99931.25;;;18.64;73.75
77227;BME280;66234;47.642;19.144;2023-05-17T13:51:24;99941.34;;;18.94;74.61
77227;BME280;66234;47.642;19.144;2023-05-17T13:54:27;99938.66;;;19.19;71.74
77227;BME280;66234;47.642;19.144;2023-05-17T13:57:29;99951.44;;;19.38;71.67
77227;BME280;66234;47.642;19.144;2023-05-17T14:00:32;99945.75;;;19.50;70.78
77227;BME280;66234;47.642;19.144;2023-05-17T14:03:35;99955.25;;;19.27;71.21
77227;BME280;66234;47.642;19.144;2023-05-17T14:06:38;99954.38;;;19.77;69.58
77227;BME280;66234;47.642;19.144;2023-05-17T14:09:41;99964.97;;;19.69;71.04
77227;BME280;66234;47.642;19.144;2023-05-17T14:12:44;99961.72;;;19.26;71.27
77227;BME280;66234;47.642;19.144;2023-05-17T14:15:48;99980.88;;;18.85;72.52
77227;BME280;66234;47.642;19.144;2023-05-17T14:18:50;99982.97;;;18.63;73.33
77227;BME280;66234;47.642;19.144;2023-05-17T14:21:54;99976.53;;;18.74;73.06
77227;BME280;66234;47.642;19.144;2023-05-17T14:24:57;99975.41;;;18.65;73.74
77227;BME280;66234;47.642;19.144;2023-05-17T14:27:59;99967.91;;;19.02;72.19
77227;BME280;66234;47.642;19.144;2023-05-17T14:31:03;99961.16;;;18.99;71.59
77227;BME280;66234;47.642;19.144;2023-05-17T14:34:05;99971.88;;;18.59;72.44
77227;BME280;66234;47.642;19.144;2023-05-17T14:37:08;99966.41;;;18.39;73.84
77227;BME280;66234;47.642;19.144;2023-05-17T14:40:11;99971.69;;;18.24;73.42
77227;BME280;66234;47.642;19.144;2023-05-17T14:43:14;99986.50;;;18.12;75.14
77227;BME280;66234;47.642;19.144;2023-05-17T14:46:17;99982.88;;;17.91;74.79
77227;BME280;66234;47.642;19.144;2023-05-17T14:49:20;99985.97;;;17.73;75.44
77227;BME280;66234;47.642;19.144;2023-05-17T14:52:24;99995.44;;;17.70;76.25
77227;BME280;66234;47.642;19.144;2023-05-17T14:55:26;99992.59;;;17.50;76.31
77227;BME280;66234;47.642;19.144;2023-05-17T14:58:29;99987.38;;;17.44;76.66
77227;BME280;66234;47.642;19.144;2023-05-17T15:01:32;99987.25;;;17.60;76.81
77227;BME280;66234;47.642;19.144;2023-05-17T15:04:34;99988.59;;;17.58;76.24
77227;BME280;66234;47.642;19.144;2023-05-17T15:07:37;99999.84;;;17.45;76.95
77227;BME280;66234;47.642;19.144;2023-05-17T15:10:40;100007.97;;;17.50;77.14
77227;BME280;66234;47.642;19.144;2023-05-17T15:13:43;100017.22;;;17.54;77.29
77227;BME280;66234;47.642;19.144;2023-05-17T15:16:50;100008.25;;;17.48;77.70
77227;BME280;66234;47.642;19.144;2023-05-17T15:19:53;100028.09;;;17.37;77.38
77227;BME280;66234;47.642;19.144;2023-05-17T15:22:56;100024.19;;;17.45;77.74
77227;BME280;66234;47.642;19.144;2023-05-17T15:25:58;100032.06;;;17.25;77.11
77227;BME280;66234;47.642;19.144;2023-05-17T15:29:02;100036.38;;;16.99;77.26
77227;BME280;66234;47.642;19.144;2023-05-17T15:32:05;100028.56;;;16.76;78.21
77227;BME280;66234;47.642;19.144;2023-05-17T15:35:08;100033.81;;;16.66;78.59
77227;BME280;66234;47.642;19.144;2023-05-17T15:38:10;100045.69;;;16.65;78.89
77227;BME280;66234;47.642;19.144;2023-05-17T15:41:14;100042.50;;;16.47;79.57
77227;BME280;66234;47.642;19.144;2023-05-17T15:44:18;100042.16;;;16.65;79.47
77227;BME280;66234;47.642;19.144;2023-05-17T15:47:21;100049.72;;;16.63;79.17
77227;BME280;66234;47.642;19.144;2023-05-17T15:50:36;100053.69;;;16.55;79.03
77227;BME280;66234;47.642;19.144;2023-05-17T15:53:38;100054.88;;;16.64;78.55
77227;BME280;66234;47.642;19.144;2023-05-17T15:56:41;100053.94;;;16.75;78.28
77227;BME280;66234;47.642;19.144;2023-05-17T15:59:44;100057.69;;;16.53;78.69
77227;BME280;66234;47.642;19.144;2023-05-17T16:02:46;100063.72;;;16.43;78.68
77227;BME280;66234;47.642;19.144;2023-05-17T16:05:49;100071.44;;;16.51;78.65
77227;BME280;66234;47.642;19.144;2023-05-17T16:08:52;100064.78;;;16.42;79.18
77227;BME280;66234;47.642;19.144;2023-05-17T16:11:55;100065.22;;;16.34;78.46
77227;BME280;66234;47.642;19.144;2023-05-17T16:14:57;100056.63;;;16.37;78.36